sensor_id;sensor_type;location;lat;lon;timestamp;pressure;altitude;pressure_sealevel;temperature;humidity
71915;BME280;60387;49.994;14.660;2024-02-23T00:01:40;95393.09;;;14.53;55.12
71915;BME280;60387;49.994;14.660;2024-02-23T00:04:13;95398.88;;;14.45;55.07
71915;BME280;60387;49.994;14.660;2024-02-23T00:06:47;95405.56;;;14.54;55.04
71915;BME280;60387;49.994;14.660;2024-02-23T00:09:20;95397.78;;;14.56;54.67
71915;BME280;60387;49.994;14.660;2024-02-23T00:11:53;95397.00;;;14.59;54.82
71915;BME280;60387;49.994;14.660;2024-02-23T00:14:26;95399.75;;;14.63;54.66
71915;BME280;60387;49.994;14.660;2024-02-23T00:17:00;95392.34;;;14.60;54.70
71915;BME280;60387;49.994;14.660;2024-02-23T00:19:33;95393.13;;;14.64;54.43
71915;BME280;60387;49.994;14.660;2024-02-23T00:22:06;95387.69;;;14.67;54.35
71915;BME280;60387;49.994;14.660;2024-02-23T00:24:39;95380.31;;;14.71;54.02
71915;BME280;60387;49.994;14.660;2024-02-23T00:27:13;95375.28;;;14.73;54.25
71915;BME280;60387;49.994;14.660;2024-02-23T00:29:46;95390.06;;;14.76;54.05
71915;BME280;60387;49.994;14.660;2024-02-23T00:32:19;95385.78;;;14.78;53.95
71915;BME280;60387;49.994;14.660;2024-02-23T00:34:52;95392.41;;;14.81;53.92
71915;BME280;60387;49.994;14.660;2024-02-23T00:37:26;95389.31;;;14.82;53.92
71915;BME280;60387;49.994;14.660;2024-02-23T00:39:59;95395.94;;;14.85;53.71
71915;BME280;60387;49.994;14.660;2024-02-23T00:42:32;95401.00;;;14.86;53.72
71915;BME280;60387;49.994;14.660;2024-02-23T00:45:06;95405.66;;;14.82;53.70
71915;BME280;60387;49.994;14.660;2024-02-23T00:47:39;95407.22;;;14.80;53.56
71915;BME280;60387;49.994;14.660;2024-02-23T00:50:13;95399.44;;;14.85;53.37
71915;BME280;60387;49.994;14.660;2024-02-23T00:52:47;95411.16;;;14.89;53.37
71915;BME280;60387;49.994;14.660;2024-02-23T00:55:20;95404.91;;;14.89;53.51
71915;BME280;60387;49.994;14.660;2024-02-23T00:57:53;95417.38;;;14.90;53.51
71915;BME280;60387;49.994;14.660;2024-02-23T01:00:26;95416.59;;;14.89;53.32
71915;BME280;60387;49.994;14.660;2024-02-23T01:03:00;95415.06;;;14.92;53.37
71915;BME280;60387;49.994;14.660;2024-02-23T01:05:33;95422.06;;;14.93;53.39
71915;BME280;60387;49.994;14.660;2024-02-23T01:08:06;95418.94;;;14.94;53.48
71915;BME280;60387;49.994;14.660;2024-02-23T01:10:40;95420.88;;;14.90;53.41
71915;BME280;60387;49.994;14.660;2024-02-23T01:13:13;95420.09;;;14.93;53.33
71915;BME280;60387;49.994;14.660;2024-02-23T01:15:46;95438.81;;;14.95;53.08
71915;BME280;60387;49.994;14.660;2024-02-23T01:18:19;95437.25;;;14.94;53.20
71915;BME280;60387;49.994;14.660;2024-02-23T01:20:53;95444.25;;;14.95;53.14
71915;BME280;60387;49.994;14.660;2024-02-23T01:23:26;95452.06;;;14.96;53.22
71915;BME280;60387;49.994;14.660;2024-02-23T01:25:59;95446.63;;;14.96;53.00
71915;BME280;60387;49.994;14.660;2024-02-23T01:28:32;95450.13;;;14.97;53.14
71915;BME280;60387;49.994;14.660;2024-02-23T01:31:09;95455.19;;;14.98;53.12
71915;BME280;60387;49.994;14.660;2024-02-23T01:33:42;95459.47;;;14.96;53.15
71915;BME280;60387;49.994;14.660;2024-02-23T01:36:15;95454.41;;;14.98;53.12
71915;BME280;60387;49.994;14.660;2024-02-23T01:38:48;95459.09;;;15.01;53.48
71915;BME280;60387;49.994;14.660;2024-02-23T01:41:22;95471.94;;;15.00;53.05
71915;BME280;60387;49.994;14.660;2024-02-23T01:43:55;95481.31;;;15.06;53.51
71915;BME280;60387;49.994;14.660;2024-02-23T01:46:28;95474.69;;;15.07;52.86
71915;BME280;60387;49.994;14.660;2024-02-23T01:49:02;95483.28;;;15.09;52.58
71915;BME280;60387;49.994;14.660;2024-02-23T01:51:36;95496.53;;;15.11;52.47
71915;BME280;60387;49.994;14.660;2024-02-23T01:54:10;95498.09;;;15.15;52.28
71915;BME280;60387;49.994;14.660;2024-02-23T01:56:43;95504.31;;;15.16;51.90
71915;BME280;60387;49.994;14.660;2024-02-23T01:59:18;95507.06;;;15.19;52.05
71915;BME280;60387;49.994;14.660;2024-02-23T02:01:51;95502.78;;;15.18;51.84
71915;BME280;60387;49.994;14.660;2024-02-23T02:04:24;95509.00;;;15.15;51.59
71915;BME280;60387;49.994;14.660;2024-02-23T02:06:59;95517.59;;;15.17;51.12
71915;BME280;60387;49.994;14.660;2024-02-23T02:09:32;95516.81;;;15.17;51.03
71915;BME280;60387;49.994;14.660;2024-02-23T02:12:06;95521.47;;;15.16;51.22
71915;BME280;60387;49.994;14.660;2024-02-23T02:14:39;95517.19;;;15.15;51.28
71915;BME280;60387;49.994;14.660;2024-02-23T02:17:12;95507.84;;;15.16;51.22
71915;BME280;60387;49.994;14.660;2024-02-23T02:19:47;95514.06;;;15.13;51.37
71915;BME280;60387;49.994;14.660;2024-02-23T02:22:21;95504.69;;;15.07;51.12
71915;BME280;60387;49.994;14.660;2024-02-23T02:24:54;95512.50;;;15.09;51.38
71915;BME280;60387;49.994;14.660;2024-02-23T02:27:27;95523.00;;;15.10;51.26
71915;BME280;60387;49.994;14.660;2024-02-23T02:30:00;95531.97;;;15.07;51.33
71915;BME280;60387;49.994;14.660;2024-02-23T02:32:35;95515.97;;;15.06;51.58
71915;BME280;60387;49.994;14.660;2024-02-23T02:35:10;95524.94;;;15.06;51.87
71915;BME280;60387;49.994;14.660;2024-02-23T02:37:44;95537.41;;;15.07;51.59
71915;BME280;60387;49.994;14.660;2024-02-23T02:40:17;95517.50;;;14.96;51.84
71915;BME280;60387;49.994;14.660;2024-02-23T02:42:50;95544.41;;;15.05;51.89
71915;BME280;60387;49.994;14.660;2024-02-23T02:45:24;95549.09;;;15.04;51.80
71915;BME280;60387;49.994;14.660;2024-02-23T02:47:57;95545.56;;;15.04;51.76
71915;BME280;60387;49.994;14.660;2024-02-23T02:50:30;95552.97;;;15.00;51.73
71915;BME280;60387;49.994;14.660;2024-02-23T02:53:04;95571.25;;;14.99;51.71
71915;BME280;60387;49.994;14.660;2024-02-23T02:55:41;95568.13;;;14.97;51.19
71915;BME280;60387;49.994;14.660;2024-02-23T02:58:14;95574.34;;;14.94;51.21
71915;BME280;60387;49.994;14.660;2024-02-23T03:00:48;95583.28;;;14.91;51.00
71915;BME280;60387;49.994;14.660;2024-02-23T03:03:21;95578.19;;;14.86;50.66
71915;BME280;60387;49.994;14.660;2024-02-23T03:05:54;95577.00;;;14.84;50.60
71915;BME280;60387;49.994;14.660;2024-02-23T03:08:27;95596.13;;;14.87;50.24
71915;BME280;60387;49.994;14.660;2024-02-23T03:11:01;95594.94;;;14.85;50.55
71915;BME280;60387;49.994;14.660;2024-02-23T03:13:34;95588.69;;;14.84;49.93
71915;BME280;60387;49.994;14.660;2024-02-23T03:16:14;95589.44;;;14.81;50.11
71915;BME280;60387;49.994;14.660;2024-02-23T03:18:48;95593.34;;;14.80;49.34
71915;BME280;60387;49.994;14.660;2024-02-23T03:21:21;95603.41;;;14.76;49.65
71915;BME280;60387;49.994;14.660;2024-02-23T03:23:54;95605.31;;;14.69;49.47
71915;BME280;60387;49.994;14.660;2024-02-23T03:26:27;95615.06;;;14.70;48.98
71915;BME280;60387;49.994;14.660;2024-02-23T03:29:01;95613.09;;;14.67;48.68
71915;BME280;60387;49.994;14.660;2024-02-23T03:31:34;95612.69;;;14.65;48.51
71915;BME280;60387;49.994;14.660;2024-02-23T03:34:07;95624.69;;;14.60;48.73
71915;BME280;60387;49.994;14.660;2024-02-23T03:36:40;95628.63;;;14.63;48.97
71915;BME280;60387;49.994;14.660;2024-02-23T03:39:14;95632.88;;;14.60;48.31
71915;BME280;60387;49.994;14.660;2024-02-23T03:41:47;95641.06;;;14.60;48.80
71915;BME280;60387;49.994;14.660;2024-02-23T03:44:20;95644.53;;;14.57;48.23
71915;BME280;60387;49.994;14.660;2024-02-23T03:46:53;95652.72;;;14.57;47.91
71915;BME280;60387;49.994;14.660;2024-02-23T03:49:27;95655.41;;;14.54;47.25
71915;BME280;60387;49.994;14.660;2024-02-23T03:52:00;95667.84;;;14.51;46.70
71915;BME280;60387;49.994;14.660;2024-02-23T03:54:33;95658.91;;;14.51;47.79
71915;BME280;60387;49.994;14.660;2024-02-23T03:57:06;95667.78;;;14.44;47.12
71915;BME280;60387;49.994;14.660;2024-02-23T03:59:40;95671.66;;;14.43;46.58
71915;BME280;60387;49.994;14.660;2024-02-23T04:02:13;95683.34;;;14.44;46.51
71915;BME280;60387;49.994;14.660;2024-02-23T04:04:47;95680.19;;;14.38;46.88
71915;BME280;60387;49.994;14.660;2024-02-23T04:07:21;95689.13;;;14.39;45.36
71915;BME280;60387;49.994;14.660;2024-02-23T04:09:54;95697.25;;;14.35;46.12
71915;BME280;60387;49.994;14.660;2024-02-23T04:12:27;95694.88;;;14.30;45.68
71915;BME280;60387;49.994;14.660;2024-02-23T04:15:00;95693.25;;;14.22;45.52
71915;BME280;60387;49.994;14.660;2024-02-23T04:17:33;95710.34;;;14.23;45.93
71915;BME280;60387;49.994;14.660;2024-02-23T04:20:07;95713.47;;;14.21;45.75
71915;BME280;60387;49.994;14.660;2024-02-23T04:22:41;95712.97;;;14.16;45.79
71915;BME280;60387;49.994;14.660;2024-02-23T04:25:14;95714.16;;;14.15;45.62
71915;BME280;60387;49.994;14.660;2024-02-23T04:27:47;95713.34;;;14.14;45.74
71915;BME280;60387;49.994;14.660;2024-02-23T04:30:21;95715.25;;;14.10;46.52
71915;BME280;60387;49.994;14.660;2024-02-23T04:32:54;95725.41;;;14.13;46.30
71915;BME280;60387;49.994;14.660;2024-02-23T04:35:27;95718.78;;;14.14;46.49
71915;BME280;60387;49.994;14.660;2024-02-23T04:38:00;95718.75;;;14.11;46.39
71915;BME280;60387;49.994;14.660;2024-02-23T04:40:33;95720.28;;;14.08;46.09
71915;BME280;60387;49.994;14.660;2024-02-23T04:43:07;95726.88;;;14.07;45.19
71915;BME280;60387;49.994;14.660;2024-02-23T04:45:40;95712.44;;;14.03;45.71
71915;BME280;60387;49.994;14.660;2024-02-23T04:48:13;95725.25;;;14.03;45.79
71915;BME280;60387;49.994;14.660;2024-02-23T04:50:46;95742.41;;;14.03;45.84
71915;BME280;60387;49.994;14.660;2024-02-23T04:53:20;95756.72;;;14.00;44.61
71915;BME280;60387;49.994;14.660;2024-02-23T04:55:53;95761.75;;;13.98;44.62
71915;BME280;60387;49.994;14.660;2024-02-23T04:58:26;95758.22;;;13.94;44.07
71915;BME280;60387;49.994;14.660;2024-02-23T05:01:00;95769.84;;;13.91;44.22
71915;BME280;60387;49.994;14.660;2024-02-23T05:03:33;95773.31;;;13.88;44.65
71915;BME280;60387;49.994;14.660;2024-02-23T05:06:06;95779.50;;;13.85;44.23
71915;BME280;60387;49.994;14.660;2024-02-23T05:08:39;95786.81;;;13.81;43.61
71915;BME280;60387;49.994;14.660;2024-02-23T05:11:14;95793.41;;;13.80;43.78
71915;BME280;60387;49.994;14.660;2024-02-23T05:13:48;95796.03;;;13.73;43.07
71915;BME280;60387;49.994;14.660;2024-02-23T05:16:21;95813.16;;;13.74;43.88
71915;BME280;60387;49.994;14.660;2024-02-23T05:18:54;95808.81;;;13.69;43.97
71915;BME280;60387;49.994;14.660;2024-02-23T05:21:27;95813.81;;;13.67;43.79
71915;BME280;60387;49.994;14.660;2024-02-23T05:24:01;95830.47;;;13.62;43.44
71915;BME280;60387;49.994;14.660;2024-02-23T05:26:34;95815.59;;;13.56;43.38
71915;BME280;60387;49.994;14.660;2024-02-23T05:29:07;95819.06;;;13.53;44.41
71915;BME280;60387;49.994;14.660;2024-02-23T05:31:46;95827.94;;;13.50;43.87
71915;BME280;60387;49.994;14.660;2024-02-23T05:34:20;95826.69;;;13.44;44.21
71915;BME280;60387;49.994;14.660;2024-02-23T05:36:54;95835.63;;;13.45;44.25
71915;BME280;60387;49.994;14.660;2024-02-23T05:39:27;95840.66;;;13.43;44.17
71915;BME280;60387;49.994;14.660;2024-02-23T05:42:00;95832.00;;;13.37;44.58
71915;BME280;60387;49.994;14.660;2024-02-23T05:44:33;95819.50;;;13.33;44.34
71915;BME280;60387;49.994;14.660;2024-02-23T05:47:06;95830.31;;;13.29;44.50
71915;BME280;60387;49.994;14.660;2024-02-23T05:49:40;95827.06;;;13.20;44.32
71915;BME280;60387;49.994;14.660;2024-02-23T05:52:13;95847.66;;;13.21;44.92
71915;BME280;60387;49.994;14.660;2024-02-23T05:54:46;95864.34;;;13.20;44.83
71915;BME280;60387;49.994;14.660;2024-02-23T05:57:20;95862.00;;;13.18;45.28
71915;BME280;60387;49.994;14.660;2024-02-23T05:59:53;95866.63;;;13.18;45.34
71915;BME280;60387;49.994;14.660;2024-02-23T06:02:27;95866.56;;;13.14;44.87
71915;BME280;60387;49.994;14.660;2024-02-23T06:05:00;95867.31;;;13.11;45.46
71915;BME280;60387;49.994;14.660;2024-02-23T06:07:34;95873.47;;;13.08;45.70
71915;BME280;60387;49.994;14.660;2024-02-23T06:10:07;95878.13;;;13.08;45.59
71915;BME280;60387;49.994;14.660;2024-02-23T06:12:40;95881.91;;;13.03;45.66
71915;BME280;60387;49.994;14.660;2024-02-23T06:15:14;95893.16;;;13.02;45.64
71915;BME280;60387;49.994;14.660;2024-02-23T06:17:47;95905.53;;;12.99;45.95
71915;BME280;60387;49.994;14.660;2024-02-23T06:20:20;95887.91;;;12.93;45.75
71915;BME280;60387;49.994;14.660;2024-02-23T06:22:54;95894.22;;;12.97;45.91
71915;BME280;60387;49.994;14.660;2024-02-23T06:25:27;95885.56;;;12.92;45.92
71915;BME280;60387;49.994;14.660;2024-02-23T06:28:00;95900.72;;;12.93;45.89
71915;BME280;60387;49.994;14.660;2024-02-23T06:30:34;95894.06;;;12.90;46.11
71915;BME280;60387;49.994;14.660;2024-02-23T06:33:07;95889.41;;;12.91;46.00
71915;BME280;60387;49.994;14.660;2024-02-23T06:35:40;95895.19;;;12.89;46.15
71915;BME280;60387;49.994;14.660;2024-02-23T06:38:13;95904.09;;;12.86;46.40
71915;BME280;60387;49.994;14.660;2024-02-23T06:40:47;95915.75;;;12.87;46.31
71915;BME280;60387;49.994;14.660;2024-02-23T06:43:20;95914.94;;;12.86;46.40
71915;BME280;60387;49.994;14.660;2024-02-23T06:45:53;95906.38;;;12.84;46.57
71915;BME280;60387;49.994;14.660;2024-02-23T06:48:26;95917.66;;;12.86;46.37
71915;BME280;60387;49.994;14.660;2024-02-23T06:51:00;95923.47;;;12.85;46.71
71915;BME280;60387;49.994;14.660;2024-02-23T06:53:33;95915.69;;;12.83;46.99
71915;BME280;60387;49.994;14.660;2024-02-23T06:56:06;95937.41;;;12.83;46.90
71915;BME280;60387;49.994;14.660;2024-02-23T06:58:40;95945.56;;;12.83;46.32
71915;BME280;60387;49.994;14.660;2024-02-23T07:01:13;95934.25;;;12.81;46.33
71915;BME280;60387;49.994;14.660;2024-02-23T07:03:46;95929.53;;;12.78;46.81
71915;BME280;60387;49.994;14.660;2024-02-23T07:06:20;95930.34;;;12.79;46.90
71915;BME280;60387;49.994;14.660;2024-02-23T07:08:53;95942.38;;;12.78;46.80
71915;BME280;60387;49.994;14.660;2024-02-23T07:11:26;95941.56;;;12.77;46.79
71915;BME280;60387;49.994;14.660;2024-02-23T07:13:59;95948.56;;;12.78;46.99
71915;BME280;60387;49.994;14.660;2024-02-23T07:16:32;95949.28;;;12.76;46.68
71915;BME280;60387;49.994;14.660;2024-02-23T07:19:06;95954.34;;;12.77;47.00
71915;BME280;60387;49.994;14.660;2024-02-23T07:21:40;95947.28;;;12.73;46.78
71915;BME280;60387;49.994;14.660;2024-02-23T07:24:13;95946.13;;;12.73;46.16
71915;BME280;60387;49.994;14.660;2024-02-23T07:26:46;95947.72;;;12.75;46.50
71915;BME280;60387;49.994;14.660;2024-02-23T07:29:20;95963.56;;;12.73;46.47
71915;BME280;60387;49.994;14.660;2024-02-23T07:31:53;95966.75;;;12.75;47.06
71915;BME280;60387;49.994;14.660;2024-02-23T07:34:26;95959.78;;;12.77;46.68
71915;BME280;60387;49.994;14.660;2024-02-23T07:36:59;95965.22;;;12.77;46.75
71915;BME280;60387;49.994;14.660;2024-02-23T07:39:32;95975.38;;;12.80;46.68
71915;BME280;60387;49.994;14.660;2024-02-23T07:42:06;95977.69;;;12.78;46.60
71915;BME280;60387;49.994;14.660;2024-02-23T07:44:39;95979.25;;;12.79;46.60
71915;BME280;60387;49.994;14.660;2024-02-23T07:47:12;95975.00;;;12.81;46.82
71915;BME280;60387;49.994;14.660;2024-02-23T07:49:46;95981.31;;;12.85;46.48
71915;BME280;60387;49.994;14.660;2024-02-23T07:52:19;95985.53;;;12.83;46.21
71915;BME280;60387;49.994;14.660;2024-02-23T07:54:52;95976.97;;;12.81;46.23
71915;BME280;60387;49.994;14.660;2024-02-23T07:57:25;95975.38;;;12.80;46.59
71915;BME280;60387;49.994;14.660;2024-02-23T07:59:59;95975.38;;;12.80;46.74
71915;BME280;60387;49.994;14.660;2024-02-23T08:02:32;95978.44;;;12.78;46.65
71915;BME280;60387;49.994;14.660;2024-02-23T08:05:06;95985.03;;;12.77;46.61
71915;BME280;60387;49.994;14.660;2024-02-23T08:07:40;95985.03;;;12.77;46.79
71915;BME280;60387;49.994;14.660;2024-02-23T08:10:13;95981.44;;;12.73;47.01
71915;BME280;60387;49.994;14.660;2024-02-23T08:12:47;95993.19;;;12.77;47.07
71915;BME280;60387;49.994;14.660;2024-02-23T08:15:20;96013.06;;;12.81;46.67
71915;BME280;60387;49.994;14.660;2024-02-23T08:17:53;96014.19;;;12.80;46.17
71915;BME280;60387;49.994;14.660;2024-02-23T08:20:26;96026.59;;;12.78;46.18
71915;BME280;60387;49.994;14.660;2024-02-23T08:22:59;96032.78;;;12.78;46.58
71915;BME280;60387;49.994;14.660;2024-02-23T08:25:33;96033.13;;;12.77;46.30
71915;BME280;60387;49.994;14.660;2024-02-23T08:28:06;96033.06;;;12.73;46.86
71915;BME280;60387;49.994;14.660;2024-02-23T08:30:39;96037.88;;;12.80;46.85
71915;BME280;60387;49.994;14.660;2024-02-23T08:33:13;96041.44;;;12.84;46.11
71915;BME280;60387;49.994;14.660;2024-02-23T08:35:46;96042.69;;;12.86;46.63
71915;BME280;60387;49.994;14.660;2024-02-23T08:38:19;96041.94;;;12.89;46.92
71915;BME280;60387;49.994;14.660;2024-02-23T08:40:52;96047.91;;;12.95;46.90
71915;BME280;60387;49.994;14.660;2024-02-23T08:43:26;96026.97;;;12.95;46.52
71915;BME280;60387;49.994;14.660;2024-02-23T08:45:59;96027.84;;;12.99;45.97
71915;BME280;60387;49.994;14.660;2024-02-23T08:48:32;96030.56;;;12.99;46.40
71915;BME280;60387;49.994;14.660;2024-02-23T08:51:05;96037.56;;;13.00;46.14
71915;BME280;60387;49.994;14.660;2024-02-23T08:53:39;96036.78;;;13.00;46.10
71915;BME280;60387;49.994;14.660;2024-02-23T08:56:12;96043.78;;;13.01;45.49
71915;BME280;60387;49.994;14.660;2024-02-23T08:58:45;96044.50;;;12.98;46.23
71915;BME280;60387;49.994;14.660;2024-02-23T09:01:19;96042.56;;;12.98;46.11
71915;BME280;60387;49.994;14.660;2024-02-23T09:03:52;96034.06;;;13.00;46.40
71915;BME280;60387;49.994;14.660;2024-02-23T09:06:25;96038.34;;;13.01;46.06
71915;BME280;60387;49.994;14.660;2024-02-23T09:08:58;96046.16;;;13.02;46.45
71915;BME280;60387;49.994;14.660;2024-02-23T09:11:32;96063.22;;;13.03;45.73
71915;BME280;60387;49.994;14.660;2024-02-23T09:14:05;96057.75;;;12.99;46.19
71915;BME280;60387;49.994;14.660;2024-02-23T09:16:38;96067.03;;;12.98;46.07
71915;BME280;60387;49.994;14.660;2024-02-23T09:19:11;96067.75;;;12.95;45.85
71915;BME280;60387;49.994;14.660;2024-02-23T09:21:45;96065.25;;;12.90;45.67
71915;BME280;60387;49.994;14.660;2024-02-23T09:24:18;96066.88;;;12.91;46.23
71915;BME280;60387;49.994;14.660;2024-02-23T09:26:51;96064.91;;;12.92;45.81
71915;BME280;60387;49.994;14.660;2024-02-23T09:29:25;96065.72;;;12.92;45.74
71915;BME280;60387;49.994;14.660;2024-02-23T09:31:58;96072.03;;;12.96;46.08
71915;BME280;60387;49.994;14.660;2024-02-23T09:34:31;96083.06;;;13.03;45.78
71915;BME280;60387;49.994;14.660;2024-02-23T09:37:07;96058.31;;;13.08;45.81
71915;BME280;60387;49.994;14.660;2024-02-23T09:39:40;96077.13;;;13.17;45.35
71915;BME280;60387;49.994;14.660;2024-02-23T09:42:14;96070.34;;;13.26;45.42
71915;BME280;60387;49.994;14.660;2024-02-23T09:44:49;96071.34;;;13.37;45.58
71915;BME280;60387;49.994;14.660;2024-02-23T09:47:28;96069.19;;;13.46;45.46
71915;BME280;60387;49.994;14.660;2024-02-23T09:50:03;96076.34;;;13.54;44.81
71915;BME280;60387;49.994;14.660;2024-02-23T09:52:37;96064.72;;;13.57;45.13
71915;BME280;60387;49.994;14.660;2024-02-23T09:55:10;96063.28;;;13.63;44.95
71915;BME280;60387;49.994;14.660;2024-02-23T09:57:44;96050.19;;;13.69;45.46
71915;BME280;60387;49.994;14.660;2024-02-23T10:00:18;96055.69;;;13.72;44.90
71915;BME280;60387;49.994;14.660;2024-02-23T10:02:53;96058.47;;;13.76;44.29
71915;BME280;60387;49.994;14.660;2024-02-23T10:05:30;96054.19;;;13.75;45.00
71915;BME280;60387;49.994;14.660;2024-02-23T10:08:04;96049.59;;;13.79;44.65
71915;BME280;60387;49.994;14.660;2024-02-23T10:10:37;96050.06;;;13.84;45.22
71915;BME280;60387;49.994;14.660;2024-02-23T10:13:10;96049.00;;;13.89;45.07
71915;BME280;60387;49.994;14.660;2024-02-23T10:15:44;96042.47;;;13.93;44.71
71915;BME280;60387;49.994;14.660;2024-02-23T10:18:17;96043.72;;;13.99;44.52
71915;BME280;60387;49.994;14.660;2024-02-23T10:20:51;96038.81;;;14.08;45.00
71915;BME280;60387;49.994;14.660;2024-02-23T10:23:24;96056.59;;;14.21;44.46
71915;BME280;60387;49.994;14.660;2024-02-23T10:25:57;96061.53;;;14.38;44.69
71915;BME280;60387;49.994;14.660;2024-02-23T10:28:30;96067.97;;;14.53;44.54
71915;BME280;60387;49.994;14.660;2024-02-23T10:31:05;96072.88;;;14.66;43.62
71915;BME280;60387;49.994;14.660;2024-02-23T10:33:38;96063.63;;;14.74;42.80
71915;BME280;60387;49.994;14.660;2024-02-23T10:36:15;96072.38;;;14.87;43.28
71915;BME280;60387;49.994;14.660;2024-02-23T10:38:51;96067.50;;;14.99;43.18
71915;BME280;60387;49.994;14.660;2024-02-23T10:41:27;96093.72;;;15.07;42.62
71915;BME280;60387;49.994;14.660;2024-02-23T10:44:03;96107.75;;;15.09;42.25
71915;BME280;60387;49.994;14.660;2024-02-23T10:46:37;96113.56;;;15.08;41.27
71915;BME280;60387;49.994;14.660;2024-02-23T10:49:11;96102.91;;;14.96;42.11
71915;BME280;60387;49.994;14.660;2024-02-23T10:51:46;96113.84;;;14.99;41.43
71915;BME280;60387;49.994;14.660;2024-02-23T10:54:19;96118.91;;;14.97;42.52
71915;BME280;60387;49.994;14.660;2024-02-23T10:56:53;96118.50;;;14.99;42.59
71915;BME280;60387;49.994;14.660;2024-02-23T10:59:26;96120.56;;;15.05;43.01
71915;BME280;60387;49.994;14.660;2024-02-23T11:02:00;96111.66;;;15.08;42.30
71915;BME280;60387;49.994;14.660;2024-02-23T11:04:34;96119.47;;;15.10;42.10
71915;BME280;60387;49.994;14.660;2024-02-23T11:07:13;96120.66;;;15.12;42.26
71915;BME280;60387;49.994;14.660;2024-02-23T11:09:52;96123.72;;;15.07;41.25
71915;BME280;60387;49.994;14.660;2024-02-23T11:12:26;96125.59;;;15.03;41.92
71915;BME280;60387;49.994;14.660;2024-02-23T11:15:02;96132.19;;;15.02;42.37
71915;BME280;60387;49.994;14.660;2024-02-23T11:17:36;96136.50;;;15.03;41.51
71915;BME280;60387;49.994;14.660;2024-02-23T11:20:14;96138.81;;;15.01;42.07
71915;BME280;60387;49.994;14.660;2024-02-23T11:22:51;96150.88;;;15.00;41.76
71915;BME280;60387;49.994;14.660;2024-02-23T11:25:29;96158.59;;;14.95;41.98
71915;BME280;60387;49.994;14.660;2024-02-23T11:28:02;96153.06;;;14.91;42.40
71915;BME280;60387;49.994;14.660;2024-02-23T11:30:35;96155.81;;;14.91;42.89
71915;BME280;60387;49.994;14.660;2024-02-23T11:33:08;96141.00;;;14.92;42.39
71915;BME280;60387;49.994;14.660;2024-02-23T11:35:46;96136.72;;;14.91;42.54
71915;BME280;60387;49.994;14.660;2024-02-23T11:38:21;96144.47;;;14.89;42.81
71915;BME280;60387;49.994;14.660;2024-02-23T11:40:54;96145.69;;;14.92;42.71
71915;BME280;60387;49.994;14.660;2024-02-23T11:43:28;96142.59;;;14.93;42.79
71915;BME280;60387;49.994;14.660;2024-02-23T11:46:01;96134.81;;;14.95;42.51
71915;BME280;60387;49.994;14.660;2024-02-23T11:48:34;96126.13;;;14.86;42.31
71915;BME280;60387;49.994;14.660;2024-02-23T11:51:08;96140.28;;;14.95;42.61
71915;BME280;60387;49.994;14.660;2024-02-23T11:53:42;96124.34;;;14.97;42.64
71915;BME280;60387;49.994;14.660;2024-02-23T11:56:16;96116.88;;;14.94;42.00
71915;BME280;60387;49.994;14.660;2024-02-23T11:58:49;96115.72;;;14.95;41.24
71915;BME280;60387;49.994;14.660;2024-02-23T12:01:23;96116.47;;;14.92;42.39
71915;BME280;60387;49.994;14.660;2024-02-23T12:03:56;96134.00;;;14.91;42.41
71915;BME280;60387;49.994;14.660;2024-02-23T12:06:29;96130.47;;;14.91;42.31
71915;BME280;60387;49.994;14.660;2024-02-23T12:09:03;96135.50;;;14.89;42.31
71915;BME280;60387;49.994;14.660;2024-02-23T12:11:37;96124.59;;;14.89;41.83
71915;BME280;60387;49.994;14.660;2024-02-23T12:14:10;96115.94;;;14.83;42.16
71915;BME280;60387;49.994;14.660;2024-02-23T12:16:44;96127.28;;;14.85;42.50
71915;BME280;60387;49.994;14.660;2024-02-23T12:19:18;96118.31;;;14.85;42.41
71915;BME280;60387;49.994;14.660;2024-02-23T12:21:51;96124.13;;;14.83;41.76
71915;BME280;60387;49.994;14.660;2024-02-23T12:24:25;96110.09;;;14.81;42.02
71915;BME280;60387;49.994;14.660;2024-02-23T12:26:58;96114.75;;;14.81;42.09
71915;BME280;60387;49.994;14.660;2024-02-23T12:29:31;96117.84;;;14.79;42.56
71915;BME280;60387;49.994;14.660;2024-02-23T12:32:08;96117.41;;;14.77;42.43
71915;BME280;60387;49.994;14.660;2024-02-23T12:34:43;96120.13;;;14.77;41.12
71915;BME280;60387;49.994;14.660;2024-02-23T12:37:21;96117.75;;;14.72;41.11
71915;BME280;60387;49.994;14.660;2024-02-23T12:39:54;96114.91;;;14.65;42.02
71915;BME280;60387;49.994;14.660;2024-02-23T12:42:27;96123.38;;;14.60;41.94
71915;BME280;60387;49.994;14.660;2024-02-23T12:45:01;96106.94;;;14.53;42.12
71915;BME280;60387;49.994;14.660;2024-02-23T12:47:34;96130.31;;;14.54;41.52
71915;BME280;60387;49.994;14.660;2024-02-23T12:50:07;96137.19;;;14.48;41.50
71915;BME280;60387;49.994;14.660;2024-02-23T12:52:41;96111.41;;;14.42;41.93
71915;BME280;60387;49.994;14.660;2024-02-23T12:55:14;96130.13;;;14.44;41.64
71915;BME280;60387;49.994;14.660;2024-02-23T12:57:47;96133.63;;;14.44;41.35
71915;BME280;60387;49.994;14.660;2024-02-23T13:00:20;96131.63;;;14.41;41.43
71915;BME280;60387;49.994;14.660;2024-02-23T13:02:54;96123.03;;;14.39;42.00
71915;BME280;60387;49.994;14.660;2024-02-23T13:05:27;96127.34;;;14.40;42.05
71915;BME280;60387;49.994;14.660;2024-02-23T13:08:00;96130.06;;;14.40;42.55
71915;BME280;60387;49.994;14.660;2024-02-23T13:10:34;96131.75;;;14.48;41.52
71915;BME280;60387;49.994;14.660;2024-02-23T13:13:07;96131.00;;;14.51;41.27
71915;BME280;60387;49.994;14.660;2024-02-23T13:15:41;96120.84;;;14.48;41.57
71915;BME280;60387;49.994;14.660;2024-02-23T13:18:14;96124.72;;;14.47;41.29
71915;BME280;60387;49.994;14.660;2024-02-23T13:20:48;96114.25;;;14.49;41.61
71915;BME280;60387;49.994;14.660;2024-02-23T13:23:21;96106.50;;;14.51;41.74